Time;durP1;ratioP1;P1;durP2;ratioP2;P2;SDS_P1;SDS_P2;PMS_P1;PMS_P2;Temp;Humidity;BMP_temperature;BMP_pressure;BME280_temperature;BME280_humidity;BME280_pressure;Samples;Min_cycle;Max_cycle;Signal;HPM_P1;HPM_P2
2023/03/11 00:00:21;;;;;;;1.05;0.93;;;;;;;3.38;61.09;95409.88;4918304;29;20044;-80
2023/03/11 00:02:52;;;;;;;0.90;0.90;;;;;;;3.37;60.65;95418.56;4918241;29;20062;-79
2023/03/11 00:05:23;;;;;;;2.53;1.02;;;;;;;3.30;60.02;95408.94;4917958;29;20048;-80
2023/03/11 00:07:53;;;;;;;0.93;0.80;;;;;;;3.26;60.49;95417.97;4917872;29;20426;-79
2023/03/11 00:10:23;;;;;;;1.17;0.90;;;;;;;3.25;60.68;95423.28;4918033;29;20079;-80
2023/03/11 00:12:52;;;;;;;1.10;1.00;;;;;;;3.25;60.47;95425.84;4918184;29;20154;-80
2023/03/11 00:15:21;;;;;;;0.98;0.88;;;;;;;3.28;61.04;95441.78;4917771;29;20107;-80
2023/03/11 00:17:50;;;;;;;2.40;0.90;;;;;;;3.30;60.76;95426.97;4918114;29;20051;-80
2023/03/11 00:20:21;;;;;;;0.77;0.75;;;;;;;3.28;60.84;95435.84;4917853;29;20131;-80
2023/03/11 00:22:50;;;;;;;2.22;0.82;;;;;;;3.27;60.81;95444.53;4917772;29;20160;-80
2023/03/11 00:25:19;;;;;;;1.20;0.98;;;;;;;3.27;60.86;95450.47;4917763;29;20048;-80
2023/03/11 00:27:47;;;;;;;0.90;0.90;;;;;;;3.29;61.06;95451.13;4917314;29;20056;-80
2023/03/11 00:30:17;;;;;;;1.10;1.00;;;;;;;3.30;61.50;95452.75;4917599;29;20095;-79
2023/03/11 00:32:47;;;;;;;2.53;1.10;;;;;;;3.33;61.16;95445.66;4918073;29;20048;-80
2023/03/11 00:35:17;;;;;;;1.42;1.33;;;;;;;3.35;61.87;95459.19;4917264;29;20094;-80
2023/03/11 00:37:47;;;;;;;1.15;1.05;;;;;;;3.35;62.51;95474.66;4917660;29;20083;-80
2023/03/11 00:40:18;;;;;;;1.05;1.02;;;;;;;3.35;61.86;95461.75;4917960;29;20138;-80
2023/03/11 00:42:46;;;;;;;2.42;1.40;;;;;;;3.33;62.07;95471.44;4917903;29;20090;-80
2023/03/11 00:45:15;;;;;;;1.10;1.00;;;;;;;3.34;62.80;95455.78;4917839;29;20072;-80
2023/03/11 00:47:43;;;;;;;1.58;1.10;;;;;;;3.30;62.05;95450.16;4927115;29;20056;-81
2023/03/11 00:50:16;;;;;;;1.15;1.13;;;;;;;3.33;64.36;95458.53;4935411;29;20044;-81
2023/03/11 00:52:45;;;;;;;1.42;1.02;;;;;;;3.33;62.59;95443.09;4922634;29;20192;-80
2023/03/11 00:55:18;;;;;;;0.90;0.90;;;;;;;3.32;62.38;95447.41;4917742;29;20061;-79
2023/03/11 00:57:46;;;;;;;2.05;1.10;;;;;;;3.31;62.14;95471.59;4917412;29;20059;-80
2023/03/11 01:00:16;;;;;;;2.35;1.15;;;;;;;3.32;62.65;95482.69;4917037;29;20057;-80
2023/03/11 01:02:44;;;;;;;1.38;1.27;;;;;;;3.33;62.77;95481.75;4917114;29;20056;-79
2023/03/11 01:05:14;;;;;;;1.80;1.15;;;;;;;3.35;62.36;95497.84;4917218;29;20055;-79
2023/03/11 01:07:42;;;;;;;2.67;1.20;;;;;;;3.39;62.55;95492.19;4917973;29;20135;-79
2023/03/11 01:10:11;;;;;;;1.40;1.00;;;;;;;3.39;61.72;95497.34;4916916;29;20082;-80
2023/03/11 01:12:39;;;;;;;1.52;1.27;;;;;;;3.39;61.87;95486.22;4933720;29;20119;-80
2023/03/11 01:15:09;;;;;;;2.47;1.00;;;;;;;3.35;60.42;95503.00;4935937;29;20052;-80
2023/03/11 01:17:37;;;;;;;0.80;0.80;;;;;;;3.30;60.00;95500.88;4936770;29;20052;-80
2023/03/11 01:20:07;;;;;;;2.28;0.98;;;;;;;3.30;59.88;95490.59;4935859;29;20083;-81
2023/03/11 01:22:37;;;;;;;1.40;1.10;;;;;;;3.28;59.80;95502.84;4935653;29;20059;-80
2023/03/11 01:25:05;;;;;;;1.00;0.82;;;;;;;3.24;59.35;95492.06;4922516;29;20131;-80
2023/03/11 01:27:33;;;;;;;0.80;0.80;;;;;;;3.22;60.00;95491.41;4917839;29;20056;-80
2023/03/11 01:30:01;;;;;;;1.00;0.90;;;;;;;3.26;61.14;95484.16;4917144;29;20060;-80
2023/03/11 01:32:29;;;;;;;1.70;0.90;;;;;;;3.28;60.91;95482.25;4917945;29;20059;-80
2023/03/11 01:34:57;;;;;;;1.35;1.00;;;;;;;3.26;60.19;95500.44;4917584;29;20127;-80
2023/03/11 01:37:25;;;;;;;0.90;0.90;;;;;;;3.24;60.22;95484.31;4917339;29;20056;-80
2023/03/11 01:39:55;;;;;;;2.03;1.00;;;;;;;3.25;60.52;95498.81;4917049;29;20059;-79
2023/03/11 01:42:23;;;;;;;1.05;0.93;;;;;;;3.21;61.09;95497.53;4918038;29;20055;-80
2023/03/11 01:44:51;;;;;;;2.35;1.20;;;;;;;3.16;60.71;95509.28;4917186;29;20052;-80
2023/03/11 01:47:39;;;;;;;1.40;1.30;;;;;;;3.10;61.49;95526.19;4919334;29;20055;-80
2023/03/11 01:50:12;;;;;;;2.13;1.40;;;;;;;3.05;61.70;95497.56;4919781;29;20151;-80
2023/03/11 01:52:42;;;;;;;1.15;1.05;;;;;;;2.99;61.84;95514.44;4920142;29;20056;-78
2023/03/11 01:55:12;;;;;;;1.20;1.10;;;;;;;2.94;61.98;95523.63;4919854;29;20048;-80
2023/03/11 01:57:43;;;;;;;1.10;1.00;;;;;;;2.89;63.11;95526.69;4919980;29;20140;-81
2023/03/11 02:00:14;;;;;;;2.45;0.75;;;;;;;2.88;60.54;95522.50;4919495;29;20048;-79
2023/03/11 02:02:45;;;;;;;1.58;0.52;;;;;;;2.74;59.64;95526.50;4920005;29;20451;-80
2023/03/11 02:05:13;;;;;;;0.50;0.40;;;;;;;2.66;59.12;95529.88;4919534;29;20056;-79
2023/03/11 02:07:41;;;;;;;0.95;0.50;;;;;;;2.63;59.57;95526.81;4919781;29;20060;-80
2023/03/11 02:10:13;;;;;;;0.40;0.30;;;;;;;2.61;59.31;95521.03;4983186;23;20052;-84
2023/03/11 02:12:43;;;;;;;0.50;0.50;;;;;;;2.59;59.19;95512.66;4962405;28;20035;-86
2023/03/11 02:15:12;;;;;;;1.08;0.50;;;;;;;2.57;59.75;95517.97;4962910;28;20035;-88
2023/03/11 02:17:43;;;;;;;0.73;0.52;;;;;;;2.59;60.86;95517.81;4961303;28;20120;-84
2023/03/11 02:20:27;;;;;;;2.50;0.68;;;;;;;2.61;61.10;95521.81;4958322;29;20112;-83
2023/03/11 02:22:58;;;;;;;1.23;0.40;;;;;;;2.61;59.98;95513.31;4958312;29;20086;-83
2023/03/11 02:25:34;;;;;;;4.38;0.50;;;;;;;2.59;58.30;95528.91;4956324;29;20425;-83
2023/03/11 02:28:10;;;;;;;2.05;0.50;;;;;;;2.55;59.76;95531.97;4957124;29;20060;-84
2023/03/11 02:30:42;;;;;;;1.65;0.70;;;;;;;2.56;59.19;95536.13;4956143;29;20059;-86
2023/03/11 02:33:11;;;;;;;1.45;0.60;;;;;;;2.57;59.47;95538.56;4957410;29;20055;-85
2023/03/11 02:35:40;;;;;;;1.65;0.45;;;;;;;2.58;59.53;95549.66;4955959;29;20577;-84
2023/03/11 02:38:09;;;;;;;0.52;0.30;;;;;;;2.53;57.90;95560.41;4957288;29;20052;-84
2023/03/11 02:40:48;;;;;;;0.88;0.60;;;;;;;2.42;57.27;95556.38;4938768;29;20056;-83
2023/03/11 02:43:23;;;;;;;1.67;0.65;;;;;;;2.37;58.43;95571.47;4955799;29;20055;-85
2023/03/11 02:45:53;;;;;;;1.77;0.32;;;;;;;2.36;57.33;95572.47;4955178;29;20031;-84
2023/03/11 02:48:22;;;;;;;0.30;0.30;;;;;;;2.33;56.58;95574.53;4954507;29;20102;-84
2023/03/11 02:50:51;;;;;;;1.33;0.38;;;;;;;2.28;57.65;95584.50;4954371;29;20232;-84
2023/03/11 02:53:25;;;;;;;0.35;0.35;;;;;;;2.25;57.40;95577.88;4957249;29;20052;-84
2023/03/11 02:55:55;;;;;;;1.20;0.30;;;;;;;2.20;56.97;95574.97;4954484;29;20067;-83
2023/03/11 02:58:26;;;;;;;2.03;0.20;;;;;;;2.18;56.92;95562.25;4953142;29;20058;-83
2023/03/11 03:00:59;;;;;;;1.58;0.40;;;;;;;2.15;56.92;95548.91;4952562;29;20062;-83
2023/03/11 03:03:33;;;;;;;1.10;0.40;;;;;;;2.13;56.95;95556.75;4951459;29;20075;-84
2023/03/11 03:06:03;;;;;;;1.58;0.50;;;;;;;2.18;59.23;95561.44;4949571;29;20044;-83
2023/03/11 03:08:32;;;;;;;1.33;0.40;;;;;;;2.26;60.34;95564.84;4949092;29;20056;-84
2023/03/11 03:11:03;;;;;;;1.38;0.40;;;;;;;2.31;58.89;95566.94;4950951;29;20115;-83
2023/03/11 03:13:35;;;;;;;0.77;0.35;;;;;;;2.32;57.67;95573.72;4952379;29;20060;-84
2023/03/11 03:16:08;;;;;;;1.15;0.43;;;;;;;2.28;57.74;95587.88;4955322;28;20039;-85
2023/03/11 03:18:39;;;;;;;1.00;0.50;;;;;;;2.23;58.02;95590.91;4961041;28;20100;-85
2023/03/11 03:21:07;;;;;;;1.65;0.60;;;;;;;2.20;58.11;95595.53;4961194;28;20056;-85
2023/03/11 03:23:36;;;;;;;1.80;0.60;;;;;;;2.14;59.17;95591.00;4958883;28;20059;-86
2023/03/11 03:26:06;;;;;;;0.77;0.40;;;;;;;2.09;58.88;95588.09;4960254;28;20038;-85
2023/03/11 03:28:37;;;;;;;0.98;0.40;;;;;;;2.05;59.00;95590.97;4954112;29;20052;-83
2023/03/11 03:31:10;;;;;;;2.25;0.60;;;;;;;2.03;59.44;95592.91;4950628;29;20052;-83
2023/03/11 03:33:38;;;;;;;1.52;0.30;;;;;;;1.98;58.30;95607.97;4950199;29;20126;-83
2023/03/11 03:36:08;;;;;;;1.08;0.45;;;;;;;1.93;59.51;95615.34;4950567;29;20074;-83
2023/03/11 03:38:36;;;;;;;3.05;0.70;;;;;;;1.90;59.83;95615.63;4949368;29;20087;-83
2023/03/11 03:41:06;;;;;;;1.73;0.55;;;;;;;1.86;58.58;95629.78;4948708;29;20051;-84
2023/03/11 03:43:37;;;;;;;1.92;0.40;;;;;;;1.85;60.34;95628.16;4949674;29;20062;-83
2023/03/11 03:46:08;;;;;;;1.15;0.43;;;;;;;1.86;60.66;95632.34;4949534;29;20048;-83
2023/03/11 03:48:36;;;;;;;1.58;0.40;;;;;;;1.85;60.45;95623.81;4946227;29;20071;-83
2023/03/11 03:51:08;;;;;;;3.40;0.70;;;;;;;1.85;60.46;95625.59;4947892;29;20055;-83
2023/03/11 03:53:41;;;;;;;2.20;0.30;;;;;;;1.85;61.37;95620.44;4947485;29;20081;-83
2023/03/11 03:56:13;;;;;;;1.55;0.60;;;;;;;1.84;61.12;95616.25;4946911;29;20067;-83
2023/03/11 03:58:46;;;;;;;3.92;0.45;;;;;;;1.83;60.59;95609.50;4946697;29;20055;-83
2023/03/11 04:01:14;;;;;;;1.42;0.50;;;;;;;1.83;61.49;95615.44;4946438;29;20052;-83
2023/03/11 04:03:45;;;;;;;1.60;0.80;;;;;;;1.83;61.23;95619.78;4947105;29;20059;-83
2023/03/11 04:06:17;;;;;;;1.88;0.75;;;;;;;1.83;60.72;95632.63;4948519;29;20059;-83
2023/03/11 04:09:02;;;;;;;1.00;0.73;;;;;;;1.84;60.77;95631.69;4948727;29;20055;-83
2023/03/11 04:11:31;;;;;;;2.93;0.50;;;;;;;1.85;61.44;95646.94;4949185;29;20055;-83
2023/03/11 04:14:04;;;;;;;2.65;0.50;;;;;;;1.84;60.64;95647.13;4950395;29;20317;-83
2023/03/11 04:16:35;;;;;;;1.95;0.70;;;;;;;1.81;60.57;95655.91;4950312;29;20059;-84
2023/03/11 04:19:08;;;;;;;1.70;0.55;;;;;;;1.79;60.74;95657.03;4949226;29;20056;-83
2023/03/11 04:21:36;;;;;;;0.90;0.50;;;;;;;1.79;60.98;95657.03;4949000;29;20051;-83
2023/03/11 04:24:06;;;;;;;1.65;0.50;;;;;;;1.75;61.73;95661.69;4950159;29;20052;-84
2023/03/11 04:26:38;;;;;;;6.65;0.88;;;;;;;1.73;61.72;95657.63;4951701;29;20047;-85
2023/03/11 04:29:14;;;;;;;0.63;0.50;;;;;;;1.73;61.04;95655.06;4947981;29;20059;-83
2023/03/11 04:31:50;;;;;;;1.75;0.40;;;;;;;1.74;61.24;95667.78;4948467;29;20123;-85
2023/03/11 04:34:19;;;;;;;1.13;0.40;;;;;;;1.78;61.29;95674.22;4947817;29;20067;-83
2023/03/11 04:36:51;;;;;;;1.27;0.77;;;;;;;1.80;61.76;95671.53;4947703;29;20059;-83
2023/03/11 04:39:19;;;;;;;;;;;;;;;1.86;61.89;95676.06;4948491;29;20087;-84
2023/03/11 04:41:47;;;;;;;2.20;0.55;;;;;;;1.88;62.10;95674.16;4947786;29;20025;-83
2023/03/11 04:44:17;;;;;;;3.03;1.38;;;;;;;1.93;60.62;95676.28;4949901;29;20157;-84
2023/03/11 04:46:47;;;;;;;0.70;0.30;;;;;;;1.97;61.65;95678.38;4950365;29;20048;-84
2023/03/11 04:49:16;;;;;;;1.05;0.95;;;;;;;2.04;62.55;95674.25;4953204;29;20084;-84
2023/03/11 04:51:44;;;;;;;2.67;0.52;;;;;;;2.09;63.18;95671.22;4952842;29;20084;-85
2023/03/11 04:54:12;;;;;;;0.98;0.43;;;;;;;2.11;62.24;95666.72;4948459;29;20079;-86
2023/03/11 04:56:40;;;;;;;1.67;0.98;;;;;;;2.12;62.40;95664.97;4949708;29;20071;-85
2023/03/11 04:59:08;;;;;;;2.13;0.47;;;;;;;2.13;63.51;95677.69;4947154;29;20115;-83
2023/03/11 05:01:39;;;;;;;0.75;0.40;;;;;;;2.16;61.81;95671.41;4948873;29;20074;-83
2023/03/11 05:04:08;;;;;;;2.75;0.65;;;;;;;2.18;62.53;95672.06;4950468;29;20044;-83
2023/03/11 05:06:36;;;;;;;2.83;0.47;;;;;;;2.18;62.29;95674.66;4949961;29;20521;-82
2023/03/11 05:09:04;;;;;;;3.78;1.17;;;;;;;2.15;61.38;95678.34;4947391;29;20055;-83
2023/03/11 05:11:40;;;;;;;2.92;0.85;;;;;;;2.13;60.59;95680.25;4948083;29;20071;-83
2023/03/11 05:14:08;;;;;;;1.10;0.60;;;;;;;2.13;62.77;95677.69;4948906;29;20082;-84
2023/03/11 05:16:38;;;;;;;0.95;0.40;;;;;;;2.14;62.37;95681.84;4948846;29;20062;-83
2023/03/11 05:19:29;;;;;;;1.02;0.52;;;;;;;2.17;63.15;95686.72;4949925;29;20044;-83
2023/03/11 05:21:54;;;;;;;1.95;0.50;;;;;;;2.21;62.98;95694.94;4952344;29;20135;-86
2023/03/11 05:24:25;;;;;;;2.05;0.52;;;;;;;2.22;63.34;95696.53;4954661;29;20055;-83
2023/03/11 05:26:58;;;;;;;2.03;0.80;;;;;;;2.27;65.83;95702.03;4956356;29;20074;-86
2023/03/11 05:29:27;;;;;;;;;;;;;;;2.34;65.04;95700.47;4955455;29;20063;-83
2023/03/11 05:32:01;;;;;;;2.72;0.68;;;;;;;2.34;64.27;95704.81;4955419;29;20453;-83
2023/03/11 05:34:29;;;;;;;1.65;0.65;;;;;;;2.33;64.01;95708.34;4953766;29;20059;-83
2023/03/11 05:36:58;;;;;;;3.85;0.90;;;;;;;2.33;62.99;95709.16;4953878;29;20067;-84
2023/03/11 05:39:37;;;;;;;1.45;0.75;;;;;;;2.32;63.74;95711.88;4952593;29;20051;-83
2023/03/11 05:42:07;;;;;;;3.08;1.60;;;;;;;2.32;62.98;95717.00;4956179;29;20055;-87
2023/03/11 05:44:36;;;;;;;3.47;1.30;;;;;;;2.30;63.66;95713.81;4959059;29;20117;-86
2023/03/11 05:47:05;;;;;;;3.00;1.23;;;;;;;2.31;65.56;95726.50;4959691;29;20122;-84
2023/03/11 05:49:34;;;;;;;3.40;1.40;;;;;;;2.32;64.01;95715.28;4955971;29;20035;-83
2023/03/11 05:52:06;;;;;;;1.88;1.13;;;;;;;2.31;64.04;95716.22;4956291;29;20071;-84
2023/03/11 05:54:34;;;;;;;3.17;1.17;;;;;;;2.31;64.57;95717.97;4955583;29;20075;-83
2023/03/11 05:57:03;;;;;;;1.92;1.05;;;;;;;2.30;65.00;95719.75;4956793;29;20074;-83
2023/03/11 05:59:34;;;;;;;2.78;1.60;;;;;;;2.29;63.74;95722.47;4960214;29;20063;-83
2023/03/11 06:02:02;;;;;;;2.58;0.90;;;;;;;2.24;64.74;95717.78;4961015;29;20051;-84
2023/03/11 06:04:31;;;;;;;1.92;0.88;;;;;;;2.22;65.29;95717.94;4959183;29;20056;-83
2023/03/11 06:07:00;;;;;;;1.33;0.90;;;;;;;2.21;66.03;95712.94;4956121;29;20067;-84
2023/03/11 06:09:30;;;;;;;3.72;1.00;;;;;;;2.21;65.86;95713.75;4954950;29;20055;-83
2023/03/11 06:11:58;;;;;;;4.90;0.90;;;;;;;2.21;64.81;95721.47;4955647;29;20058;-83
2023/03/11 06:14:30;;;;;;;3.05;1.13;;;;;;;2.20;64.46;95729.34;4954465;29;20070;-84
2023/03/11 06:17:03;;;;;;;2.22;0.80;;;;;;;2.17;65.24;95724.50;4956597;29;20055;-84
2023/03/11 06:19:38;;;;;;;;;;;;;;;2.22;67.54;95732.56;4954922;29;20055;-83
2023/03/11 06:22:06;;;;;;;6.40;1.87;;;;;;;2.23;65.03;95740.16;4956596;29;19930;-84
2023/03/11 06:24:38;;;;;;;2.30;0.80;;;;;;;2.21;64.84;95742.06;4956232;29;20282;-83
2023/03/11 06:27:08;;;;;;;4.50;1.05;;;;;;;2.20;65.63;95739.63;4953099;29;20067;-83
2023/03/11 06:29:36;;;;;;;2.67;1.33;;;;;;;2.20;66.36;95742.19;4953000;29;20067;-83
2023/03/11 06:32:09;;;;;;;4.95;1.20;;;;;;;2.19;67.32;95748.31;4953272;29;20082;-83
2023/03/11 06:34:42;;;;;;;3.83;1.10;;;;;;;2.21;67.38;95751.56;4961311;28;20112;-86
2023/03/11 06:37:10;;;;;;;2.00;0.82;;;;;;;2.25;67.58;95757.97;4960745;28;20059;-84
2023/03/11 06:39:41;;;;;;;2.00;1.10;;;;;;;2.23;65.13;95760.72;4953657;29;20051;-84
2023/03/11 06:42:13;;;;;;;4.15;0.98;;;;;;;2.25;65.55;95766.53;4952520;29;20073;-83
2023/03/11 06:44:42;;;;;;;;;;;;;;;2.29;65.43;95761.06;4946245;29;20050;-85
2023/03/11 06:47:12;;;;;;;2.53;0.93;;;;;;;2.32;66.08;95766.75;4955586;29;19918;-83
2023/03/11 06:49:43;;;;;;;2.67;0.80;;;;;;;2.37;67.64;95767.09;4953907;29;20055;-83
2023/03/11 06:52:15;;;;;;;2.33;0.77;;;;;;;2.41;66.15;95767.59;4954774;29;20510;-83
2023/03/11 06:54:43;;;;;;;1.77;0.80;;;;;;;2.46;66.86;95767.94;4953215;29;20056;-83
2023/03/11 06:57:13;;;;;;;4.18;1.75;;;;;;;2.48;66.45;95771.97;4954221;29;20051;-83
2023/03/11 06:59:44;;;;;;;3.35;1.17;;;;;;;2.56;67.58;95783.28;4958232;28;20315;-86
2023/03/11 07:02:16;;;;;;;4.45;1.45;;;;;;;2.64;67.13;95788.47;4961216;28;20088;-83
2023/03/11 07:04:52;;;;;;;2.88;1.30;;;;;;;2.68;65.33;95795.75;4960889;28;20048;-84
2023/03/11 07:07:22;;;;;;;2.75;1.80;;;;;;;2.74;67.66;95799.50;4956242;29;20071;-85
2023/03/11 07:09:55;;;;;;;7.13;2.10;;;;;;;2.79;65.09;95804.97;4959714;28;20085;-85
2023/03/11 07:12:26;;;;;;;3.55;2.00;;;;;;;2.77;65.35;95809.47;4955470;29;20075;-83
2023/03/11 07:14:59;;;;;;;5.47;1.45;;;;;;;2.80;66.41;95804.03;4951848;29;20052;-83
2023/03/11 07:17:28;;;;;;;2.88;1.27;;;;;;;2.80;66.63;95811.75;4947248;28;20054;-82
2023/03/11 07:19:58;;;;;;;4.13;1.33;;;;;;;2.84;66.94;95810.50;4944368;29;20091;-81
2023/03/11 07:22:26;;;;;;;2.85;0.82;;;;;;;2.84;64.46;95810.50;4944597;29;20052;-83
2023/03/11 07:24:54;;;;;;;2.35;0.95;;;;;;;2.81;64.93;95818.50;4945483;29;20130;-82
2023/03/11 07:27:24;;;;;;;2.72;1.00;;;;;;;2.81;66.25;95825.44;4956903;29;20102;-83
2023/03/11 07:29:52;;;;;;;2.90;1.10;;;;;;;2.85;66.14;95832.72;4942803;29;20076;-83
2023/03/11 07:32:22;;;;;;;5.80;1.48;;;;;;;2.89;65.79;95828.88;4943393;29;20055;-83
2023/03/11 07:34:50;;;;;;;3.00;1.27;;;;;;;2.97;65.70;95824.72;4957177;29;20047;-82
2023/03/11 07:37:23;;;;;;;1.92;1.05;;;;;;;3.06;64.85;95836.66;4943954;29;20047;-83
2023/03/11 07:39:54;;;;;;;1.67;1.20;;;;;;;3.15;66.11;95828.03;4944193;29;20048;-83
2023/03/11 07:42:24;;;;;;;5.22;1.40;;;;;;;3.22;66.56;95829.03;4944027;29;20517;-83
2023/03/11 07:44:55;;;;;;;3.05;1.27;;;;;;;3.26;66.09;95845.81;4942652;29;20056;-82
2023/03/11 07:47:27;;;;;;;4.80;1.30;;;;;;;3.28;65.00;95846.47;4941148;29;20078;-82
2023/03/11 07:49:57;;;;;;;4.07;1.20;;;;;;;3.32;65.28;95848.72;4941906;29;20066;-82
2023/03/11 07:52:30;;;;;;;6.18;1.77;;;;;;;3.36;65.30;95852.59;4942958;29;20101;-82
2023/03/11 07:54:57;;;;;;;;;;;;;;;3.37;63.38;95851.63;4945218;29;20047;-82
2023/03/11 07:57:26;;;;;;;3.05;1.35;;;;;;;3.34;65.34;95847.59;4950203;28;19970;-83
2023/03/11 07:59:59;;;;;;;3.25;1.27;;;;;;;3.34;65.85;95857.09;4950378;29;20130;-83
2023/03/11 08:02:27;;;;;;;6.80;3.22;;;;;;;3.39;66.19;95854.84;4944936;29;20054;-82
2023/03/11 08:04:56;;;;;;;6.40;2.25;;;;;;;3.47;67.27;95862.63;4942519;29;20075;-83
2023/03/11 08:07:26;;;;;;;17.48;5.20;;;;;;;3.53;64.78;95867.16;4930244;29;20051;-83
2023/03/11 08:09:55;;;;;;;7.47;2.95;;;;;;;3.52;63.80;95865.56;4943073;29;20071;-83
2023/03/11 08:12:24;;;;;;;6.10;2.25;;;;;;;3.50;62.53;95862.34;4932236;23;20072;-78
2023/03/11 08:14:51;;;;;;;2.33;1.40;;;;;;;3.50;62.73;95867.50;4916375;29;20052;-77
2023/03/11 08:17:19;;;;;;;3.42;1.20;;;;;;;3.53;62.41;95872.31;4915310;29;20059;-78
2023/03/11 08:19:49;;;;;;;4.78;2.15;;;;;;;3.55;62.28;95869.59;4922029;29;20481;-78
2023/03/11 08:22:16;;;;;;;4.15;1.50;;;;;;;3.57;61.95;95867.69;4935789;29;20130;-77
2023/03/11 08:24:45;;;;;;;6.00;0.85;;;;;;;3.53;61.99;95877.47;4923273;29;20056;-76
2023/03/11 08:27:12;;;;;;;2.75;1.38;;;;;;;3.55;62.76;95882.50;4916295;29;20055;-77
2023/03/11 08:29:40;;;;;;;3.20;1.02;;;;;;;3.51;61.40;95885.38;4916014;29;20100;-77
2023/03/11 08:32:08;;;;;;;2.58;1.00;;;;;;;3.49;60.67;95887.28;4916209;29;20067;-77
2023/03/11 08:34:38;;;;;;;4.47;0.98;;;;;;;3.50;60.09;95891.50;4935059;29;20048;-77
2023/03/11 08:37:05;;;;;;;1.75;0.85;;;;;;;3.50;59.50;95901.81;4935544;29;20047;-76
2023/03/11 08:39:33;;;;;;;2.72;1.05;;;;;;;3.44;59.02;95899.06;4928349;29;20048;-77
2023/03/11 08:42:02;;;;;;;2.65;1.25;;;;;;;3.39;60.24;95903.84;4907916;29;20525;-77
2023/03/11 08:44:30;;;;;;;3.45;1.13;;;;;;;3.34;59.33;95898.34;4925502;29;20453;-77
2023/03/11 08:46:58;;;;;;;4.20;1.20;;;;;;;3.27;60.17;95903.31;4916193;29;20138;-76
2023/03/11 08:49:25;;;;;;;2.67;2.10;;;;;;;3.28;60.28;95904.94;4922252;29;20490;-76
2023/03/11 08:51:53;;;;;;;3.90;0.93;;;;;;;3.27;60.92;95908.47;4918088;29;20161;-76
2023/03/11 08:54:20;;;;;;;6.22;1.00;;;;;;;3.22;60.68;95908.94;4922112;29;20048;-76
2023/03/11 08:56:48;;;;;;;2.40;1.10;;;;;;;3.24;60.29;95912.16;4931724;29;20060;-77
2023/03/11 08:59:17;;;;;;;2.28;1.20;;;;;;;3.28;61.52;95908.31;4932425;29;20055;-76
2023/03/11 09:01:45;;;;;;;3.50;1.08;;;;;;;3.32;59.66;95913.16;4918778;29;20052;-76
2023/03/11 09:04:13;;;;;;;2.35;1.17;;;;;;;3.30;59.58;95916.72;4922149;29;20486;-76
2023/03/11 09:06:42;;;;;;;2.65;1.15;;;;;;;3.29;59.10;95922.00;4934505;29;20131;-76
2023/03/11 09:09:10;;;;;;;2.50;1.25;;;;;;;3.32;60.75;95921.69;4931992;29;20044;-76
2023/03/11 09:11:38;;;;;;;2.78;1.50;;;;;;;3.30;59.63;95921.88;4945401;29;20066;-78
2023/03/11 09:14:05;;;;;;;4.72;1.27;;;;;;;3.30;59.64;95919.28;4920929;29;20430;-77
2023/03/11 09:16:34;;;;;;;4.22;1.50;;;;;;;3.41;61.89;95915.63;5044233;23;20055;-76
2023/03/11 09:19:06;;;;;;;3.42;1.00;;;;;;;3.57;61.42;95917.47;4922797;29;20065;-77
2023/03/11 09:21:34;;;;;;;4.07;1.08;;;;;;;3.78;60.04;95914.47;4920846;29;20063;-76
2023/03/11 09:24:03;;;;;;;2.35;1.25;;;;;;;3.98;60.56;95922.78;4929046;29;20083;-76
2023/03/11 09:26:30;;;;;;;4.15;1.08;;;;;;;4.16;58.70;95924.44;4918596;29;20048;-77
2023/03/11 09:28:58;;;;;;;2.33;1.27;;;;;;;4.29;57.73;95917.03;4934058;29;20047;-77
2023/03/11 09:31:25;;;;;;;6.10;1.58;;;;;;;4.48;58.91;95924.50;4925527;29;20138;-76
2023/03/11 09:33:55;;;;;;;9.27;1.92;;;;;;;4.61;56.86;95918.03;4926730;29;20051;-76
2023/03/11 09:36:23;;;;;;;3.67;1.10;;;;;;;4.67;58.21;95920.78;4900404;29;20052;-77
2023/03/11 09:38:50;;;;;;;3.03;1.15;;;;;;;4.74;58.11;95929.50;4910725;29;20475;-78
2023/03/11 09:41:29;;;;;;;5.43;1.73;;;;;;;4.77;58.82;95922.38;4925009;29;20062;-78
2023/03/11 09:44:12;;;;;;;4.88;1.20;;;;;;;4.86;55.02;95929.97;4922030;29;20135;-79
2023/03/11 09:47:24;;;;;;;1.77;1.08;;;;;;;4.89;57.80;95926.25;4919435;29;20055;-79
2023/03/11 09:50:15;;;;;;;1.77;1.20;;;;;;;4.88;56.09;95933.22;4853542;29;20057;-79
2023/03/11 09:52:47;;;;;;;3.28;1.50;;;;;;;4.99;55.08;95942.41;4843435;29;20071;-77
2023/03/11 09:55:36;;;;;;;2.20;1.30;;;;;;;5.04;52.18;95936.75;4904408;29;20498;-79
2023/03/11 09:58:10;;;;;;;1.40;1.05;;;;;;;5.01;54.97;95940.47;4919392;29;20507;-80
2023/03/11 10:00:39;;;;;;;3.03;1.10;;;;;;;4.94;54.44;95932.56;4920528;29;20630;-80
2023/03/11 10:03:17;;;;;;;1.67;1.08;;;;;;;4.82;55.51;95945.97;4931092;29;20056;-78
2023/03/11 10:05:46;;;;;;;1.65;1.00;;;;;;;4.70;54.49;95948.06;4920875;29;20051;-79
2023/03/11 10:08:22;;;;;;;3.28;1.52;;;;;;;4.63;57.21;95952.25;4936615;29;20139;-79
2023/03/11 10:10:58;;;;;;;3.95;1.40;;;;;;;4.56;54.12;95948.69;4932815;29;20055;-78
2023/03/11 10:13:35;;;;;;;2.13;1.10;;;;;;;4.42;53.00;95950.16;4927926;29;20396;-79
2023/03/11 10:16:11;;;;;;;1.30;0.75;;;;;;;4.27;53.11;95955.13;4918792;29;20060;-78
2023/03/11 10:18:47;;;;;;;2.88;1.38;;;;;;;4.18;53.67;95951.72;4925768;29;20056;-81
2023/03/11 10:21:27;;;;;;;2.17;1.15;;;;;;;4.14;55.57;95952.97;4940563;29;20069;-80
2023/03/11 10:24:05;;;;;;;6.18;1.73;;;;;;;4.08;54.11;95954.41;4928204;29;20048;-79
2023/03/11 10:26:36;;;;;;;1.42;0.95;;;;;;;4.07;53.05;95960.56;4918354;29;20059;-80
2023/03/11 10:29:12;;;;;;;2.80;1.08;;;;;;;4.25;52.33;95949.31;4910930;29;20525;-81
2023/03/11 10:31:47;;;;;;;1.08;0.90;;;;;;;4.50;51.48;95952.72;4926468;29;20111;-81
2023/03/11 10:34:21;;;;;;;1.65;1.10;;;;;;;4.70;51.80;95948.88;4922617;29;20111;-81
2023/03/11 10:36:56;;;;;;;2.65;1.52;;;;;;;6.07;50.82;95951.50;4918290;29;20078;-81
2023/03/11 10:39:25;;;;;;;2.10;0.95;;;;;;;8.13;48.48;95949.53;4924136;29;20059;-81
2023/03/11 10:41:55;;;;;;;2.45;1.00;;;;;;;9.93;43.84;95942.41;4919735;29;20052;-79
2023/03/11 10:44:28;;;;;;;1.63;1.08;;;;;;;10.82;43.54;95944.94;4931904;29;20055;-81
2023/03/11 10:46:55;;;;;;;;;;;;;;;10.44;43.77;95942.84;4925440;29;20067;-81
2023/03/11 10:49:23;;;;;;;1.58;0.60;;;;;;;10.24;44.07;95937.53;4920860;29;20015;-80
2023/03/11 10:51:54;;;;;;;1.40;1.10;;;;;;;9.87;42.51;95947.41;4930082;29;20127;-80
2023/03/11 10:54:26;;;;;;;4.15;1.55;;;;;;;9.31;42.79;95954.47;4910614;29;20048;-79
2023/03/11 10:56:58;;;;;;;7.63;1.63;;;;;;;9.06;44.58;95960.91;4917105;29;20062;-79
2023/03/11 10:59:30;;;;;;;3.10;0.80;;;;;;;8.79;42.97;95953.84;4930771;29;20795;-79
2023/03/11 11:02:00;;;;;;;3.40;1.65;;;;;;;8.36;43.38;95954.59;4926794;29;20058;-80
2023/03/11 11:04:32;;;;;;;2.95;1.00;;;;;;;8.42;44.69;95955.69;4931258;29;20048;-79
2023/03/11 11:07:21;;;;;;;4.07;1.60;;;;;;;8.50;41.78;95959.97;4921332;29;20067;-79
2023/03/11 11:10:13;;;;;;;5.10;1.20;;;;;;;8.16;44.50;95959.56;4917945;29;20048;-80
2023/03/11 11:12:52;;;;;;;1.65;0.88;;;;;;;7.87;42.04;95957.00;4915871;29;20127;-80
2023/03/11 11:15:21;;;;;;;2.53;1.20;;;;;;;7.67;45.42;95954.16;4924801;29;20051;-79
2023/03/11 11:17:51;;;;;;;2.15;1.25;;;;;;;7.53;45.81;95958.38;4926637;29;20130;-78
2023/03/11 11:20:19;;;;;;;1.48;0.95;;;;;;;7.36;46.28;95953.31;4916054;29;20083;-79
2023/03/11 11:22:52;;;;;;;0.80;0.80;;;;;;;7.18;43.84;95953.66;4927356;29;20470;-79
2023/03/11 11:25:32;;;;;;;2.22;1.05;;;;;;;7.35;43.92;95962.09;4936237;29;20154;-78
2023/03/11 11:28:02;;;;;;;4.75;0.98;;;;;;;7.69;44.92;95962.56;4932918;29;20533;-77
2023/03/11 11:30:30;;;;;;;3.28;1.42;;;;;;;7.53;46.85;95958.38;4929310;29;20051;-77
2023/03/11 11:33:23;;;;;;;2.55;1.52;;;;;;;7.30;45.01;95964.41;4917653;29;20063;-77
2023/03/11 11:35:53;;;;;;;3.20;1.33;;;;;;;8.13;45.58;95967.72;4935576;29;20057;-78
2023/03/11 11:38:24;;;;;;;2.70;1.45;;;;;;;10.29;41.92;95961.22;4921195;29;20502;-78
2023/03/11 11:40:54;;;;;;;3.63;1.13;;;;;;;12.76;40.39;95961.75;4919715;29;20050;-78
2023/03/11 11:43:27;;;;;;;2.15;1.25;;;;;;;14.67;34.18;95965.59;4915794;29;20085;-78
2023/03/11 11:45:59;;;;;;;1.90;1.17;;;;;;;16.38;32.05;95952.41;4921986;29;20048;-78
2023/03/11 11:48:32;;;;;;;1.45;0.90;;;;;;;17.48;29.47;95952.19;4945936;28;20058;-80
2023/03/11 11:51:02;;;;;;;1.55;0.73;;;;;;;16.78;31.49;95954.19;4943516;29;20062;-79
2023/03/11 11:53:40;;;;;;;1.50;0.50;;;;;;;15.64;29.57;95942.44;4922916;29;20056;-80
2023/03/11 11:56:08;;;;;;;1.13;0.75;;;;;;;14.87;31.68;95949.56;4925925;29;20096;-81
2023/03/11 11:58:36;;;;;;;2.17;0.80;;;;;;;14.16;36.04;95938.75;4956347;28;20032;-79
2023/03/11 12:01:14;;;;;;;3.42;0.98;;;;;;;13.70;35.99;95943.50;4922936;29;20087;-80